createdAt,value
2023-05-09T00:00:49.177Z,0.00
2023-05-09T00:01:49.195Z,0.00
2023-05-09T00:02:49.180Z,0.00
2023-05-09T00:03:49.136Z,0.00
2023-05-09T00:04:49.153Z,0.00
2023-05-09T00:05:49.107Z,0.00
2023-05-09T00:06:49.081Z,0.00
2023-05-09T00:07:49.095Z,0.00
2023-05-09T00:08:49.050Z,0.00
2023-05-09T00:09:49.040Z,0.00
2023-05-09T00:10:49.026Z,0.00
2023-05-09T00:11:49.016Z,0.00
2023-05-09T00:12:49.032Z,0.00
2023-05-09T00:13:48.988Z,0.00
2023-05-09T00:14:48.978Z,0.00
2023-05-09T00:15:48.965Z,0.00
2023-05-09T00:16:49.076Z,0.00
2023-05-09T00:17:48.983Z,0.00
2023-05-09T00:18:48.932Z,0.00
2023-05-09T00:19:48.921Z,0.00
2023-05-09T00:20:48.880Z,0.00
2023-05-09T00:21:48.921Z,0.00
2023-05-09T00:22:48.899Z,0.00
2023-05-09T00:23:48.853Z,0.00
2023-05-09T00:24:48.849Z,0.00
2023-05-09T00:25:48.825Z,0.00
2023-05-09T00:26:48.815Z,0.00
2023-05-09T00:27:48.801Z,0.00
2023-05-09T00:28:48.781Z,0.00
2023-05-09T00:29:48.780Z,0.00
2023-05-09T00:30:48.781Z,0.00
2023-05-09T00:31:48.853Z,0.00
2023-05-09T00:32:48.761Z,0.00
2023-05-09T00:33:48.734Z,0.00
2023-05-09T00:34:48.713Z,0.00
2023-05-09T00:35:48.717Z,0.00
2023-05-09T00:36:48.678Z,0.00
2023-05-09T00:37:48.667Z,0.00
2023-05-09T00:38:48.643Z,0.00
2023-05-09T00:39:48.649Z,0.00
2023-05-09T00:40:48.644Z,0.00
2023-05-09T00:41:48.616Z,0.00
2023-05-09T00:42:48.607Z,0.00
2023-05-09T00:43:48.592Z,0.00
2023-05-09T00:44:48.595Z,0.00
2023-05-09T00:45:48.645Z,0.00
2023-05-09T00:46:48.546Z,0.00
2023-05-09T00:47:48.596Z,0.00
2023-05-09T00:48:48.518Z,0.00
2023-05-09T00:49:48.533Z,0.00
2023-05-09T00:50:48.535Z,0.00
2023-05-09T00:51:48.495Z,0.00
2023-05-09T00:52:48.462Z,0.00
2023-05-09T00:53:48.461Z,0.00
2023-05-09T00:54:48.458Z,0.00
2023-05-09T00:55:48.426Z,0.00
2023-05-09T00:56:48.417Z,0.00
2023-05-09T00:57:48.405Z,0.00
2023-05-09T00:58:48.394Z,0.00
2023-05-09T00:59:48.407Z,0.00
2023-05-09T01:00:48.378Z,0.00
2023-05-09T01:01:48.413Z,0.00
2023-05-09T01:02:48.419Z,0.00
2023-05-09T01:03:48.377Z,0.00
2023-05-09T01:04:48.335Z,0.00
2023-05-09T01:05:48.324Z,0.00
2023-05-09T01:06:48.283Z,0.00
2023-05-09T01:07:48.350Z,0.00
2023-05-09T01:08:48.274Z,0.00
2023-05-09T01:09:48.252Z,0.00
2023-05-09T01:10:48.240Z,0.00
2023-05-09T01:11:48.236Z,0.00
2023-05-09T01:12:48.245Z,0.00
2023-05-09T01:13:48.216Z,0.00
2023-05-09T01:14:48.182Z,0.00
2023-05-09T01:15:48.282Z,0.00
2023-05-09T01:16:48.181Z,0.00
2023-05-09T01:17:48.235Z,0.00
2023-05-09T01:18:48.162Z,0.00
2023-05-09T01:19:48.119Z,0.00
2023-05-09T01:20:48.105Z,0.00
2023-05-09T01:21:48.099Z,0.00
2023-05-09T01:22:48.199Z,0.00
2023-05-09T01:23:48.081Z,0.00
2023-05-09T01:24:48.076Z,0.00
2023-05-09T01:25:48.069Z,0.00
2023-05-09T01:26:48.072Z,0.00
2023-05-09T01:27:48.023Z,0.00
2023-05-09T01:28:48.003Z,0.00
2023-05-09T01:29:48.009Z,0.00
2023-05-09T01:30:47.985Z,0.00
2023-05-09T01:31:48.015Z,0.00
2023-05-09T01:32:48.043Z,0.00
2023-05-09T01:33:47.948Z,0.00
2023-05-09T01:34:47.918Z,0.00
2023-05-09T01:35:47.931Z,0.00
2023-05-09T01:36:47.930Z,0.00
2023-05-09T01:37:47.917Z,0.00
2023-05-09T01:38:47.881Z,0.00
2023-05-09T01:39:47.872Z,0.00
2023-05-09T01:40:47.950Z,0.00
2023-05-09T01:41:47.866Z,0.00
2023-05-09T01:42:47.832Z,0.00
2023-05-09T01:43:47.837Z,0.00
2023-05-09T01:44:47.816Z,0.00
2023-05-09T01:45:47.792Z,0.00
2023-05-09T01:46:47.826Z,0.00
2023-05-09T01:47:47.869Z,0.00
2023-05-09T01:48:47.760Z,0.00
2023-05-09T01:49:47.733Z,0.00
2023-05-09T01:50:47.734Z,0.00
2023-05-09T01:51:47.728Z,0.00
2023-05-09T01:52:47.718Z,0.00
2023-05-09T01:53:47.721Z,0.00
2023-05-09T01:54:47.661Z,0.00
2023-05-09T01:55:47.670Z,0.00
2023-05-09T01:56:47.668Z,0.00
2023-05-09T01:57:47.657Z,0.00
2023-05-09T01:58:47.613Z,0.00
2023-05-09T01:59:47.609Z,0.00
2023-05-09T02:00:47.668Z,0.00
2023-05-09T02:01:47.619Z,0.00
2023-05-09T02:02:47.707Z,0.00
2023-05-09T02:03:47.568Z,0.00
2023-05-09T02:04:47.602Z,0.00
2023-05-09T02:05:47.554Z,0.00
2023-05-09T02:06:47.526Z,0.00
2023-05-09T02:07:47.534Z,0.00
2023-05-09T02:08:47.483Z,0.00
2023-05-09T02:09:47.483Z,0.00
2023-05-09T02:10:47.475Z,0.00
2023-05-09T02:11:47.458Z,0.00
2023-05-09T02:12:47.448Z,0.00
2023-05-09T02:13:47.437Z,0.00
2023-05-09T02:14:47.429Z,0.00
2023-05-09T02:15:47.422Z,0.00
2023-05-09T02:16:47.446Z,0.00
2023-05-09T02:17:47.386Z,0.00
2023-05-09T02:18:47.363Z,0.00
2023-05-09T02:19:47.386Z,0.00
2023-05-09T02:20:47.376Z,0.00
2023-05-09T02:21:47.349Z,0.00
2023-05-09T02:22:47.312Z,0.00
2023-05-09T02:23:47.301Z,0.00
2023-05-09T02:24:47.297Z,0.00
2023-05-09T02:25:47.267Z,0.00
2023-05-09T02:26:47.257Z,0.00
2023-05-09T02:27:47.253Z,0.00
2023-05-09T02:28:47.261Z,0.00
2023-05-09T02:29:47.531Z,0.00
2023-05-09T02:30:47.201Z,0.00
2023-05-09T02:31:47.234Z,0.00
2023-05-09T02:32:47.251Z,0.00
2023-05-09T02:33:47.215Z,0.00
2023-05-09T02:34:47.149Z,0.00
2023-05-09T02:35:47.137Z,0.00
2023-05-09T02:36:47.137Z,0.00
2023-05-09T02:37:47.113Z,0.00
2023-05-09T02:38:47.112Z,0.00
2023-05-09T02:39:47.083Z,0.00
2023-05-09T02:40:47.072Z,0.00
2023-05-09T02:41:47.067Z,0.00
2023-05-09T02:42:47.033Z,0.00
2023-05-09T02:43:47.035Z,0.00
2023-05-09T02:44:47.010Z,0.00
2023-05-09T02:45:47.056Z,0.00
2023-05-09T02:46:46.987Z,0.00
2023-05-09T02:47:47.053Z,0.00
2023-05-09T02:48:46.968Z,0.00
2023-05-09T02:49:46.942Z,0.00
2023-05-09T02:50:46.956Z,0.00
2023-05-09T02:51:46.939Z,0.00
2023-05-09T02:52:46.927Z,0.00
2023-05-09T02:53:46.923Z,0.00
2023-05-09T02:54:46.893Z,0.00
2023-05-09T02:55:46.889Z,0.00
2023-05-09T02:56:46.868Z,0.00
2023-05-09T02:57:46.877Z,0.00
2023-05-09T02:58:46.825Z,0.00
2023-05-09T02:59:46.815Z,0.00
2023-05-09T03:00:46.818Z,0.00
2023-05-09T03:01:46.833Z,0.00
2023-05-09T03:02:46.871Z,0.00
2023-05-09T03:03:46.930Z,0.00
2023-05-09T03:04:46.747Z,0.00
2023-05-09T03:05:46.755Z,0.00
2023-05-09T03:06:46.751Z,0.00
2023-05-09T03:07:46.748Z,0.00
2023-05-09T03:08:46.700Z,0.00
2023-05-09T03:09:46.704Z,0.00
2023-05-09T03:10:46.670Z,0.00
2023-05-09T03:11:46.681Z,0.00
2023-05-09T03:12:46.681Z,0.00
2023-05-09T03:13:46.648Z,0.00
2023-05-09T03:14:46.628Z,0.00
2023-05-09T03:15:46.621Z,0.00
2023-05-09T03:16:46.603Z,0.00
2023-05-09T03:17:46.664Z,0.00
2023-05-09T03:18:46.562Z,0.00
2023-05-09T03:19:46.567Z,0.00
2023-05-09T03:20:46.539Z,0.00
2023-05-09T03:21:46.550Z,5.62
2023-05-09T03:22:46.510Z,5.62
2023-05-09T03:23:46.501Z,5.62
2023-05-09T03:24:46.481Z,5.62
2023-05-09T03:25:46.489Z,5.62
2023-05-09T03:26:46.494Z,5.62
2023-05-09T03:27:46.462Z,5.62
2023-05-09T03:28:46.425Z,5.62
2023-05-09T03:29:46.438Z,5.62
2023-05-09T03:30:46.463Z,11.25
2023-05-09T03:31:46.454Z,11.25
2023-05-09T03:32:46.440Z,11.25
2023-05-09T03:33:46.377Z,11.25
2023-05-09T03:34:46.373Z,11.25
2023-05-09T03:35:46.359Z,11.25
2023-05-09T03:36:46.333Z,16.88
2023-05-09T03:37:46.329Z,16.88
2023-05-09T03:38:46.294Z,16.88
2023-05-09T03:39:46.314Z,16.88
2023-05-09T03:40:46.302Z,16.88
2023-05-09T03:41:46.250Z,22.50
2023-05-09T03:42:46.242Z,22.50
2023-05-09T03:43:46.256Z,22.50
2023-05-09T03:44:46.235Z,22.50
2023-05-09T03:45:46.225Z,28.12
2023-05-09T03:46:46.221Z,28.12
2023-05-09T03:47:46.312Z,28.12
2023-05-09T03:48:46.174Z,28.12
2023-05-09T03:49:46.164Z,28.12
2023-05-09T03:50:46.149Z,33.75
2023-05-09T03:51:46.136Z,33.75
2023-05-09T03:52:46.154Z,33.75
2023-05-09T03:53:46.143Z,33.75
2023-05-09T03:54:46.228Z,39.38
2023-05-09T03:55:46.073Z,39.38
2023-05-09T03:56:46.074Z,39.38
2023-05-09T03:57:46.061Z,39.38
2023-05-09T03:58:46.046Z,45.00
2023-05-09T03:59:46.036Z,45.00
2023-05-09T04:00:46.018Z,45.00
2023-05-09T04:01:46.058Z,45.00
2023-05-09T04:02:46.041Z,50.62
2023-05-09T04:03:46.140Z,50.62
2023-05-09T04:04:45.951Z,50.62
2023-05-09T04:05:45.937Z,50.62
2023-05-09T04:06:45.936Z,56.25
2023-05-09T04:07:45.914Z,56.25
2023-05-09T04:08:45.925Z,56.25
2023-05-09T04:09:45.882Z,61.88
2023-05-09T04:10:45.880Z,61.88
2023-05-09T04:11:45.861Z,61.88
2023-05-09T04:12:45.957Z,67.50
2023-05-09T04:13:45.861Z,67.50
2023-05-09T04:14:48.758Z,67.50
2023-05-09T04:15:45.825Z,73.12
2023-05-09T04:16:45.841Z,73.12
2023-05-09T04:17:45.903Z,73.12
2023-05-09T04:18:45.775Z,78.75
2023-05-09T04:19:45.769Z,78.75
2023-05-09T04:20:45.754Z,78.75
2023-05-09T04:21:45.745Z,84.38
2023-05-09T04:22:47.072Z,84.38
2023-05-09T04:23:45.704Z,84.38
2023-05-09T04:24:45.689Z,90.00
2023-05-09T04:25:45.681Z,90.00
2023-05-09T04:26:45.722Z,90.00
2023-05-09T04:27:45.676Z,90.00
2023-05-09T04:28:45.637Z,95.62
2023-05-09T04:29:45.636Z,95.62
2023-05-09T04:30:45.663Z,101.25
2023-05-09T04:31:45.874Z,101.25
2023-05-09T04:32:45.638Z,106.88
2023-05-09T04:33:45.577Z,112.50
2023-05-09T04:34:45.587Z,281.25
2023-05-09T04:35:45.549Z,680.62
2023-05-09T04:36:45.566Z,731.25
2023-05-09T04:37:45.540Z,1248.75
2023-05-09T04:38:45.510Z,1749.38
2023-05-09T04:39:45.506Z,1164.38
2023-05-09T04:40:45.527Z,720.00
2023-05-09T04:41:45.491Z,731.25
2023-05-09T04:42:45.471Z,1276.88
2023-05-09T04:43:45.491Z,2092.50
2023-05-09T04:44:45.459Z,2188.12
2023-05-09T04:45:45.443Z,1923.75
2023-05-09T04:46:45.563Z,1113.75
2023-05-09T04:47:45.498Z,871.88
2023-05-09T04:48:45.391Z,1046.25
2023-05-09T04:49:45.401Z,1738.12
2023-05-09T04:50:45.386Z,2300.62
2023-05-09T04:51:45.349Z,1833.75
2023-05-09T04:52:45.341Z,1215.00
2023-05-09T04:53:45.380Z,1856.25
2023-05-09T04:54:45.321Z,2340.00
2023-05-09T04:55:45.329Z,1710.00
2023-05-09T04:56:45.326Z,1046.25
2023-05-09T04:57:45.276Z,1012.50
2023-05-09T04:58:45.268Z,1406.25
2023-05-09T04:59:45.263Z,2497.50
2023-05-09T05:00:45.224Z,3065.62
2023-05-09T05:01:45.246Z,3200.62
2023-05-09T05:02:45.327Z,2306.25
2023-05-09T05:03:45.194Z,1186.88
2023-05-09T05:04:45.270Z,1040.62
2023-05-09T05:05:45.267Z,1771.88
2023-05-09T05:06:45.148Z,2790.00
2023-05-09T05:07:45.138Z,3116.25
2023-05-09T05:08:45.165Z,2176.88
2023-05-09T05:09:45.139Z,1400.62
2023-05-09T05:10:45.111Z,1687.50
2023-05-09T05:11:57.083Z,1828.12
2023-05-09T05:12:46.101Z,1456.88
2023-05-09T05:13:45.072Z,2041.88
2023-05-09T05:14:45.076Z,2199.38
2023-05-09T05:15:45.086Z,1597.50
2023-05-09T05:16:45.032Z,1873.12
2023-05-09T05:17:45.047Z,2868.75
2023-05-09T05:18:45.031Z,2806.88
2023-05-09T05:19:44.984Z,1839.38
2023-05-09T05:20:44.982Z,1023.75
2023-05-09T05:21:44.947Z,1125.00
2023-05-09T05:22:44.953Z,2306.25
2023-05-09T05:23:44.940Z,3481.88
2023-05-09T05:24:44.938Z,3470.62
2023-05-09T05:25:44.897Z,3425.62
2023-05-09T05:26:44.889Z,2041.88
2023-05-09T05:27:44.869Z,961.88
2023-05-09T05:28:44.894Z,1085.62
2023-05-09T05:29:44.852Z,2109.38
2023-05-09T05:30:44.852Z,3605.62
2023-05-09T05:31:44.892Z,3723.75
2023-05-09T05:32:44.882Z,2716.88
2023-05-09T05:33:44.819Z,1586.25
2023-05-09T05:34:44.817Z,1861.88
2023-05-09T05:35:44.792Z,1541.25
2023-05-09T05:36:44.775Z,2266.88
2023-05-09T05:37:45.531Z,3043.12
2023-05-09T05:38:44.733Z,3150.00
2023-05-09T05:39:44.708Z,2030.62
2023-05-09T05:40:44.712Z,2255.62
2023-05-09T05:41:44.738Z,3217.50
2023-05-09T05:42:44.690Z,2356.88
2023-05-09T05:43:44.669Z,1681.88
2023-05-09T05:44:44.667Z,2289.38
2023-05-09T05:45:44.712Z,2205.00
2023-05-09T05:46:44.639Z,1721.25
2023-05-09T05:47:44.725Z,3273.75
2023-05-09T05:48:44.629Z,3408.75
2023-05-09T05:49:44.581Z,2548.12
2023-05-09T05:50:44.620Z,1608.75
2023-05-09T05:51:44.588Z,1693.12
2023-05-09T05:52:44.564Z,2103.75
2023-05-09T05:53:44.523Z,3391.88
2023-05-09T05:54:44.524Z,3645.00
2023-05-09T05:55:44.571Z,3532.50
2023-05-09T05:56:44.513Z,2756.25
2023-05-09T05:57:44.488Z,1158.75
2023-05-09T05:58:44.486Z,1085.62
2023-05-09T05:59:44.448Z,2604.38
2023-05-09T06:00:44.477Z,3903.75
2023-05-09T06:01:44.479Z,4522.50
2023-05-09T06:02:44.560Z,3273.75
2023-05-09T06:03:44.441Z,1473.75
2023-05-09T06:04:44.396Z,995.62
2023-05-09T06:05:44.389Z,2013.75
2023-05-09T06:06:44.375Z,3802.50
2023-05-09T06:07:44.369Z,4533.75
2023-05-09T06:08:44.337Z,4185.00
2023-05-09T06:09:44.337Z,2638.12
2023-05-09T06:10:44.321Z,1355.62
2023-05-09T06:11:44.304Z,1473.75
2023-05-09T06:12:44.328Z,2143.12
2023-05-09T06:13:44.316Z,3510.00
2023-05-09T06:14:44.350Z,3920.62
2023-05-09T06:15:44.272Z,2795.62
2023-05-09T06:16:44.276Z,1805.62
2023-05-09T06:17:44.290Z,1957.50
2023-05-09T06:18:44.218Z,1929.38
2023-05-09T06:19:44.221Z,2666.25
2023-05-09T06:20:44.192Z,3071.25
2023-05-09T06:21:44.264Z,2193.75
2023-05-09T06:22:44.169Z,2244.38
2023-05-09T06:24:01.508Z,3532.50
2023-05-09T06:24:45.162Z,2300.62
2023-05-09T06:25:44.125Z,2013.75
2023-05-09T06:26:44.106Z,2981.25
2023-05-09T06:27:44.099Z,2188.12
2023-05-09T06:28:44.132Z,1732.50
2023-05-09T06:29:44.289Z,3178.12
2023-05-09T06:30:44.070Z,2688.75
2023-05-09T06:31:44.088Z,2615.62
2023-05-09T06:32:44.069Z,3178.12
2023-05-09T06:33:44.068Z,2019.38
2023-05-09T06:34:44.042Z,1715.62
2023-05-09T06:35:44.005Z,3363.75
2023-05-09T06:36:43.984Z,3515.62
2023-05-09T06:37:44.305Z,2520.00
2023-05-09T06:38:44.246Z,2272.50
2023-05-09T06:39:44.073Z,1749.38
2023-05-09T06:40:43.928Z,2182.50
2023-05-09T06:41:44.216Z,3616.88
2023-05-09T06:42:43.921Z,3335.62
2023-05-09T06:43:43.913Z,2002.50
2023-05-09T06:44:43.981Z,1558.12
2023-05-09T06:45:43.863Z,1659.38
2023-05-09T06:46:44.606Z,3504.38
2023-05-09T06:47:43.865Z,5259.38
2023-05-09T06:48:43.893Z,3442.50
2023-05-09T06:49:43.828Z,1884.38
2023-05-09T06:50:43.802Z,2238.75
2023-05-09T06:51:43.822Z,2446.88
2023-05-09T06:52:43.813Z,2947.50
2023-05-09T06:53:44.257Z,3346.88
2023-05-09T06:54:47.813Z,3082.50
2023-05-09T06:55:44.160Z,1608.75
2023-05-09T06:56:43.756Z,1046.25
2023-05-09T06:57:43.725Z,2941.88
2023-05-09T06:58:43.727Z,3943.12
2023-05-09T06:59:43.707Z,1873.12
2023-05-09T07:00:43.684Z,720.00
2023-05-09T07:01:44.603Z,416.25
2023-05-09T07:02:43.717Z,382.50
2023-05-09T07:03:44.371Z,388.12
2023-05-09T07:04:45.558Z,382.50
2023-05-09T07:05:45.633Z,371.25
2023-05-09T07:06:46.979Z,360.00
2023-05-09T07:07:43.605Z,354.38
2023-05-09T07:08:45.790Z,348.75
2023-05-09T07:09:43.584Z,348.75
2023-05-09T07:10:47.732Z,343.12
2023-05-09T07:11:47.971Z,331.88
2023-05-09T07:12:47.280Z,326.25
2023-05-09T07:13:44.177Z,326.25
2023-05-09T07:14:46.206Z,320.62
2023-05-09T07:15:45.708Z,320.62
2023-05-09T07:16:45.769Z,320.62
2023-05-09T07:17:44.368Z,315.00
2023-05-09T07:18:43.675Z,315.00
2023-05-09T07:19:44.234Z,315.00
2023-05-09T07:20:43.480Z,315.00
2023-05-09T07:21:43.442Z,320.62
2023-05-09T07:22:44.920Z,320.62
2023-05-09T07:23:44.537Z,315.00
2023-05-09T07:24:45.893Z,315.00
2023-05-09T07:25:46.397Z,315.00
2023-05-09T07:26:49.228Z,309.38
2023-05-09T07:27:44.896Z,309.38
2023-05-09T07:28:46.579Z,309.38
2023-05-09T07:29:46.767Z,309.38
2023-05-09T07:30:43.347Z,309.38
2023-05-09T07:31:43.325Z,309.38
2023-05-09T07:32:43.369Z,309.38
2023-05-09T07:33:43.300Z,309.38
2023-05-09T07:34:43.294Z,303.75
2023-05-09T07:35:43.279Z,303.75
2023-05-09T07:36:43.272Z,303.75
2023-05-09T07:37:43.280Z,303.75
2023-05-09T07:38:43.240Z,303.75
2023-05-09T07:39:43.227Z,303.75
2023-05-09T07:40:43.206Z,303.75
2023-05-09T07:41:43.184Z,303.75
2023-05-09T07:42:43.195Z,303.75
2023-05-09T07:43:43.165Z,303.75
2023-05-09T07:44:43.154Z,303.75
2023-05-09T07:45:43.183Z,298.12
2023-05-09T07:46:43.116Z,298.12
2023-05-09T07:47:43.156Z,298.12
2023-05-09T07:48:43.116Z,298.12
2023-05-09T07:49:43.304Z,298.12
2023-05-09T07:50:43.122Z,298.12
2023-05-09T07:51:43.044Z,298.12
2023-05-09T07:52:43.051Z,303.75
2023-05-09T07:53:43.076Z,298.12
2023-05-09T07:54:43.063Z,298.12
2023-05-09T07:55:42.988Z,292.50
2023-05-09T07:56:43.134Z,292.50
2023-05-09T07:57:42.994Z,292.50
2023-05-09T07:58:43.000Z,292.50
2023-05-09T07:59:42.968Z,292.50
2023-05-09T08:00:42.967Z,292.50
2023-05-09T08:01:42.924Z,292.50
2023-05-09T08:02:43.004Z,292.50
2023-05-09T08:03:43.018Z,286.88
2023-05-09T08:04:42.948Z,286.88
2023-05-09T08:05:42.880Z,286.88
2023-05-09T08:06:42.866Z,286.88
2023-05-09T08:07:42.862Z,286.88
2023-05-09T08:08:42.866Z,286.88
2023-05-09T08:09:42.818Z,286.88
2023-05-09T08:10:42.800Z,286.88
2023-05-09T08:11:42.794Z,286.88
2023-05-09T08:12:42.835Z,281.25
2023-05-09T08:13:42.807Z,281.25
2023-05-09T08:14:42.762Z,281.25
2023-05-09T08:15:42.805Z,281.25
2023-05-09T08:16:42.771Z,281.25
2023-05-09T08:17:42.787Z,281.25
2023-05-09T08:18:42.718Z,275.62
2023-05-09T08:19:42.682Z,275.62
2023-05-09T08:20:42.719Z,275.62
2023-05-09T08:21:42.679Z,275.62
2023-05-09T08:22:42.667Z,275.62
2023-05-09T08:23:42.646Z,275.62
2023-05-09T08:24:42.625Z,270.00
2023-05-09T08:25:42.630Z,270.00
2023-05-09T08:26:42.617Z,270.00
2023-05-09T08:27:42.601Z,270.00
2023-05-09T08:28:42.572Z,270.00
2023-05-09T08:29:42.635Z,270.00
2023-05-09T08:30:42.560Z,264.38
2023-05-09T08:31:42.694Z,264.38
2023-05-09T08:32:42.601Z,264.38
2023-05-09T08:33:42.833Z,264.38
2023-05-09T08:34:42.500Z,264.38
2023-05-09T08:35:42.495Z,264.38
2023-05-09T08:36:42.495Z,264.38
2023-05-09T08:37:42.459Z,264.38
2023-05-09T08:38:42.462Z,264.38
2023-05-09T08:39:42.456Z,264.38
2023-05-09T08:40:42.451Z,264.38
2023-05-09T08:41:42.470Z,264.38
2023-05-09T08:42:42.396Z,258.75
2023-05-09T08:43:42.385Z,258.75
2023-05-09T08:44:42.424Z,258.75
2023-05-09T08:45:42.372Z,258.75
2023-05-09T08:46:42.444Z,258.75
2023-05-09T08:47:42.456Z,258.75
2023-05-09T08:48:42.313Z,258.75
2023-05-09T08:49:42.346Z,253.12
2023-05-09T08:50:42.369Z,253.12
2023-05-09T08:51:42.294Z,253.12
2023-05-09T08:52:42.284Z,253.12
2023-05-09T08:53:42.288Z,253.12
2023-05-09T08:54:42.259Z,253.12
2023-05-09T08:55:42.276Z,253.12
2023-05-09T08:56:42.213Z,253.12
2023-05-09T08:57:42.214Z,247.50
2023-05-09T08:58:42.195Z,247.50
2023-05-09T08:59:44.092Z,247.50
2023-05-09T09:00:42.163Z,253.12
2023-05-09T09:01:42.171Z,247.50
2023-05-09T09:02:45.942Z,247.50
2023-05-09T09:03:44.870Z,247.50
2023-05-09T09:04:44.777Z,247.50
2023-05-09T09:05:44.137Z,247.50
2023-05-09T09:06:44.059Z,241.88
2023-05-09T09:07:44.690Z,241.88
2023-05-09T09:08:43.853Z,241.88
2023-05-09T09:09:44.670Z,247.50
2023-05-09T09:10:43.465Z,241.88
2023-05-09T09:11:43.707Z,241.88
2023-05-09T09:12:44.995Z,241.88
2023-05-09T09:13:48.761Z,241.88
2023-05-09T09:14:43.437Z,241.88
2023-05-09T09:15:42.960Z,241.88
2023-05-09T09:16:44.958Z,247.50
2023-05-09T09:17:45.068Z,241.88
2023-05-09T09:18:44.946Z,241.88
2023-05-09T09:19:42.677Z,241.88
2023-05-09T09:20:43.961Z,241.88
2023-05-09T09:21:42.326Z,241.88
2023-05-09T09:22:41.948Z,236.25
2023-05-09T09:23:42.463Z,236.25
2023-05-09T09:24:42.412Z,236.25
2023-05-09T09:25:42.792Z,236.25
2023-05-09T09:26:42.880Z,236.25
2023-05-09T09:27:42.070Z,236.25
2023-05-09T09:28:41.837Z,236.25
2023-05-09T09:29:41.786Z,236.25
2023-05-09T09:30:41.776Z,236.25
2023-05-09T09:31:41.819Z,236.25
2023-05-09T09:32:41.819Z,236.25
2023-05-09T09:33:41.745Z,236.25
2023-05-09T09:34:41.736Z,236.25
2023-05-09T09:35:41.769Z,236.25
2023-05-09T09:36:41.712Z,236.25
2023-05-09T09:37:41.744Z,236.25
2023-05-09T09:38:41.690Z,236.25
2023-05-09T09:39:41.679Z,236.25
2023-05-09T09:40:41.653Z,241.88
2023-05-09T09:41:41.680Z,241.88
2023-05-09T09:42:41.636Z,236.25
2023-05-09T09:43:41.632Z,236.25
2023-05-09T09:44:41.618Z,236.25
2023-05-09T09:45:41.660Z,236.25
2023-05-09T09:46:41.606Z,236.25
2023-05-09T09:47:41.620Z,236.25
2023-05-09T09:48:41.551Z,236.25
2023-05-09T09:49:41.933Z,236.25
2023-05-09T09:50:41.530Z,236.25
2023-05-09T09:51:41.530Z,236.25
2023-05-09T09:52:41.497Z,236.25
2023-05-09T09:53:41.483Z,236.25
2023-05-09T09:54:41.488Z,236.25
2023-05-09T09:55:41.483Z,236.25
2023-05-09T09:56:41.460Z,236.25
2023-05-09T09:57:41.462Z,236.25
2023-05-09T09:58:41.459Z,236.25
2023-05-09T09:59:41.425Z,236.25
2023-05-09T10:00:41.428Z,236.25
2023-05-09T10:01:41.465Z,230.62
2023-05-09T10:02:41.376Z,236.25
2023-05-09T10:03:41.409Z,236.25
2023-05-09T10:04:41.373Z,230.62
2023-05-09T10:05:41.368Z,230.62
2023-05-09T10:06:41.314Z,236.25
2023-05-09T10:07:41.325Z,230.62
2023-05-09T10:08:41.299Z,230.62
2023-05-09T10:09:41.318Z,236.25
2023-05-09T10:10:41.282Z,236.25
2023-05-09T10:11:41.261Z,241.88
2023-05-09T10:12:41.267Z,236.25
2023-05-09T10:13:41.225Z,230.62
2023-05-09T10:14:41.249Z,230.62
2023-05-09T10:15:52.405Z,230.62
2023-05-09T10:16:44.239Z,230.62
2023-05-09T10:17:41.328Z,230.62
2023-05-09T10:18:41.349Z,230.62
2023-05-09T10:19:41.179Z,236.25
2023-05-09T10:20:41.160Z,236.25
2023-05-09T10:21:41.139Z,236.25
2023-05-09T10:22:41.110Z,230.62
2023-05-09T10:23:41.182Z,230.62
2023-05-09T10:24:41.101Z,230.62
2023-05-09T10:25:41.094Z,236.25
2023-05-09T10:26:41.085Z,236.25
2023-05-09T10:27:41.055Z,236.25
2023-05-09T10:28:41.088Z,236.25
2023-05-09T10:29:41.055Z,230.62
2023-05-09T10:30:41.011Z,236.25
2023-05-09T10:31:41.073Z,230.62
2023-05-09T10:32:40.981Z,230.62
2023-05-09T10:33:41.049Z,230.62
2023-05-09T10:34:40.971Z,230.62
2023-05-09T10:35:40.959Z,230.62
2023-05-09T10:36:40.933Z,230.62
2023-05-09T10:37:40.919Z,230.62
2023-05-09T10:38:40.909Z,230.62
2023-05-09T10:39:40.910Z,230.62
2023-05-09T10:40:40.880Z,230.62
2023-05-09T10:41:40.867Z,230.62
2023-05-09T10:42:40.886Z,230.62
2023-05-09T10:43:40.870Z,230.62
2023-05-09T10:44:40.827Z,230.62
2023-05-09T10:45:40.815Z,230.62
2023-05-09T10:46:40.906Z,230.62
2023-05-09T10:47:40.848Z,225.00
2023-05-09T10:48:40.800Z,225.00
2023-05-09T10:49:40.757Z,225.00
2023-05-09T10:50:40.791Z,225.00
2023-05-09T10:51:40.745Z,225.00
2023-05-09T10:52:40.735Z,225.00
2023-05-09T10:53:40.756Z,225.00
2023-05-09T10:54:40.697Z,225.00
2023-05-09T10:55:40.699Z,225.00
2023-05-09T10:56:40.699Z,225.00
2023-05-09T10:57:40.730Z,225.00
2023-05-09T10:58:40.665Z,225.00
2023-05-09T10:59:40.628Z,225.00
2023-05-09T11:00:40.615Z,225.00
2023-05-09T11:01:40.660Z,225.00
2023-05-09T11:02:40.644Z,225.00
2023-05-09T11:03:40.609Z,225.00
2023-05-09T11:04:40.578Z,225.00
2023-05-09T11:05:40.567Z,225.00
2023-05-09T11:06:40.599Z,225.00
2023-05-09T11:07:40.550Z,225.00
2023-05-09T11:08:40.539Z,230.62
2023-05-09T11:09:40.512Z,225.00
2023-05-09T11:10:40.481Z,225.00
2023-05-09T11:11:40.517Z,230.62
2023-05-09T11:12:40.522Z,225.00
2023-05-09T11:13:40.458Z,225.00
2023-05-09T11:14:40.467Z,225.00
2023-05-09T11:15:40.433Z,225.00
2023-05-09T11:16:40.513Z,230.62
2023-05-09T11:17:40.458Z,225.00
2023-05-09T11:18:40.387Z,225.00
2023-05-09T11:19:40.371Z,225.00
2023-05-09T11:20:40.361Z,225.00
2023-05-09T11:21:40.424Z,225.00
2023-05-09T11:22:40.352Z,225.00
2023-05-09T11:23:40.371Z,225.00
2023-05-09T11:24:40.330Z,225.00
2023-05-09T11:25:40.329Z,225.00
2023-05-09T11:26:40.306Z,225.00
2023-05-09T11:27:40.280Z,225.00
2023-05-09T11:28:40.284Z,225.00
2023-05-09T11:29:40.268Z,225.00
2023-05-09T11:30:40.268Z,225.00
2023-05-09T11:31:40.291Z,225.00
2023-05-09T11:32:40.255Z,225.00
2023-05-09T11:33:40.199Z,225.00
2023-05-09T11:34:40.201Z,225.00
2023-05-09T11:35:40.199Z,225.00
2023-05-09T11:36:40.164Z,225.00
2023-05-09T11:37:40.147Z,225.00
2023-05-09T11:38:40.124Z,225.00
2023-05-09T11:39:40.126Z,225.00
2023-05-09T11:40:40.125Z,225.00
2023-05-09T11:41:40.098Z,225.00
2023-05-09T11:42:40.082Z,225.00
2023-05-09T11:43:40.064Z,225.00
2023-05-09T11:44:40.068Z,225.00
2023-05-09T11:45:40.090Z,225.00
2023-05-09T11:46:40.029Z,225.00
2023-05-09T11:47:40.035Z,225.00
2023-05-09T11:48:40.046Z,225.00
2023-05-09T11:49:40.034Z,225.00
2023-05-09T11:50:39.999Z,225.00
2023-05-09T11:51:39.950Z,225.00
2023-05-09T11:52:39.955Z,225.00
2023-05-09T11:53:39.942Z,225.00
2023-05-09T11:54:39.948Z,225.00
2023-05-09T11:55:39.915Z,225.00
2023-05-09T11:56:39.893Z,225.00
2023-05-09T11:57:39.899Z,225.00
2023-05-09T11:58:39.889Z,225.00
2023-05-09T11:59:39.879Z,225.00
2023-05-09T12:00:39.850Z,225.00
2023-05-09T12:01:39.844Z,225.00
2023-05-09T12:02:39.912Z,225.00
2023-05-09T12:03:39.878Z,225.00
2023-05-09T12:04:39.876Z,219.38
2023-05-09T12:05:39.783Z,225.00
2023-05-09T12:06:39.780Z,225.00
2023-05-09T12:07:39.755Z,225.00
2023-05-09T12:08:39.771Z,225.00
2023-05-09T12:09:39.739Z,225.00
2023-05-09T12:10:39.707Z,225.00
2023-05-09T12:11:39.746Z,225.00
2023-05-09T12:12:39.708Z,225.00
2023-05-09T12:13:39.731Z,225.00
2023-05-09T12:14:39.711Z,225.00
2023-05-09T12:15:39.699Z,225.00
2023-05-09T12:16:39.686Z,213.75
2023-05-09T12:17:39.692Z,225.00
2023-05-09T12:18:39.623Z,219.38
2023-05-09T12:19:39.597Z,219.38
2023-05-09T12:20:39.593Z,219.38
2023-05-09T12:21:39.601Z,225.00
2023-05-09T12:22:39.584Z,219.38
2023-05-09T12:23:39.532Z,225.00
2023-05-09T12:24:39.557Z,225.00
2023-05-09T12:25:39.512Z,219.38
2023-05-09T12:26:39.541Z,225.00
2023-05-09T12:27:39.512Z,225.00
2023-05-09T12:28:39.522Z,225.00
2023-05-09T12:29:39.460Z,225.00
2023-05-09T12:30:39.457Z,225.00
2023-05-09T12:31:39.458Z,219.38
2023-05-09T12:32:39.745Z,219.38
2023-05-09T12:33:39.432Z,219.38
2023-05-09T12:34:39.426Z,219.38
2023-05-09T12:35:39.418Z,219.38
2023-05-09T12:36:39.385Z,219.38
2023-05-09T12:37:39.374Z,219.38
2023-05-09T12:38:39.375Z,219.38
2023-05-09T12:39:39.346Z,219.38